Time;durP1;ratioP1;P1;durP2;ratioP2;P2;SDS_P1;SDS_P2;PMS_P1;PMS_P2;Temp;Humidity;BMP_temperature;BMP_pressure;BME280_temperature;BME280_humidity;BME280_pressure;Samples;Min_cycle;Max_cycle;Signal;HPM_P1;HPM_P2
2022/12/09 00:00:55;;;;;;;;;61.75;46.00;;;;;;;;5043612;28;45381;-77
2022/12/09 00:03:20;;;;;;;;;63.25;46.00;;;;;;;;5043975;28;45349;-77
2022/12/09 00:05:45;;;;;;;;;67.50;48.75;;;;;;;;5043360;28;45384;-78
2022/12/09 00:08:11;;;;;;;;;60.25;46.00;;;;;;;;5045328;28;45361;-77
2022/12/09 00:10:36;;;;;;;;;62.25;44.50;;;;;;;;5046906;28;44910;-77
2022/12/09 00:13:01;;;;;;;;;61.50;44.75;;;;;;;;5037806;28;45421;-77
2022/12/09 00:15:26;;;;;;;;;57.25;44.75;;;;;;;;5038128;28;46149;-77
2022/12/09 00:17:51;;;;;;;;;61.50;46.50;;;;;;;;5049100;28;45407;-77
2022/12/09 00:20:17;;;;;;;;;62.75;46.00;;;;;;;;5040525;28;45440;-77
2022/12/09 00:22:42;;;;;;;;;56.00;43.75;;;;;;;;5042120;28;45384;-77
2022/12/09 00:25:07;;;;;;;;;56.50;45.00;;;;;;;;5055339;28;44741;-77
2022/12/09 00:27:32;;;;;;;;;57.25;45.00;;;;;;;;5042694;28;45215;-77
2022/12/09 00:29:58;;;;;;;;;56.25;43.25;;;;;;;;5057440;28;45579;-77
2022/12/09 00:32:23;;;;;;;;;62.50;46.50;;;;;;;;5047821;28;45368;-77
2022/12/09 00:34:48;;;;;;;;;54.25;41.50;;;;;;;;5044783;28;44810;-77
2022/12/09 00:37:13;;;;;;;;;62.25;45.75;;;;;;;;5043821;28;45218;-77
2022/12/09 00:39:39;;;;;;;;;54.00;44.00;;;;;;;;5042852;28;45297;-77
2022/12/09 00:42:04;;;;;;;;;57.25;42.00;;;;;;;;5040492;28;44727;-77
2022/12/09 00:44:29;;;;;;;;;57.50;44.25;;;;;;;;5043748;28;45271;-75
2022/12/09 00:46:54;;;;;;;;;53.50;42.25;;;;;;;;5042057;28;46560;-75
2022/12/09 00:49:19;;;;;;;;;54.75;41.75;;;;;;;;5048415;28;45164;-75
2022/12/09 00:51:45;;;;;;;;;53.75;41.25;;;;;;;;5053420;28;45247;-75
2022/12/09 00:54:10;;;;;;;;;58.50;44.50;;;;;;;;5030763;28;45861;-75
2022/12/09 00:56:35;;;;;;;;;56.75;41.25;;;;;;;;5053279;28;45289;-75
2022/12/09 00:59:01;;;;;;;;;48.25;40.25;;;;;;;;5057169;28;45891;-75
2022/12/09 01:01:26;;;;;;;;;55.25;42.75;;;;;;;;5041255;28;45241;-75
2022/12/09 01:03:51;;;;;;;;;53.50;39.50;;;;;;;;5054095;28;45234;-77
2022/12/09 01:06:18;;;;;;;;;56.00;42.00;;;;;;;;5051787;28;45300;-77
2022/12/09 01:08:43;;;;;;;;;51.25;42.50;;;;;;;;5051817;28;45404;-78
2022/12/09 01:11:10;;;;;;;;;52.75;41.00;;;;;;;;5046799;28;45338;-77
2022/12/09 01:13:35;;;;;;;;;54.25;40.50;;;;;;;;5053061;28;45314;-77
2022/12/09 01:16:00;;;;;;;;;54.50;44.50;;;;;;;;5032184;28;47421;-77
2022/12/09 01:18:25;;;;;;;;;46.25;41.00;;;;;;;;5045953;28;45426;-77
2022/12/09 01:20:57;;;;;;;;;50.25;39.25;;;;;;;;5036516;28;45312;-77
2022/12/09 01:23:23;;;;;;;;;39.50;35.25;;;;;;;;5047460;28;45451;-77
2022/12/09 01:25:48;;;;;;;;;53.25;42.00;;;;;;;;5056730;28;45439;-77
2022/12/09 01:28:13;;;;;;;;;51.50;40.50;;;;;;;;5046926;28;44867;-75
2022/12/09 01:30:39;;;;;;;;;54.50;40.50;;;;;;;;5051235;28;45544;-77
2022/12/09 01:33:04;;;;;;;;;49.50;41.00;;;;;;;;5046587;28;45340;-77
2022/12/09 01:35:30;;;;;;;;;54.00;40.25;;;;;;;;5051979;28;45557;-77
2022/12/09 01:37:55;;;;;;;;;47.75;34.75;;;;;;;;5051064;28;45654;-77
2022/12/09 01:40:20;;;;;;;;;54.25;38.50;;;;;;;;5045654;28;45253;-77
2022/12/09 01:42:45;;;;;;;;;46.75;36.00;;;;;;;;5043297;28;45523;-77
2022/12/09 01:45:29;;;;;;;;;51.75;40.75;;;;;;;;5047212;28;45230;-77
2022/12/09 01:48:13;;;;;;;;;38.50;37.00;;;;;;;;5050835;28;45293;-75
2022/12/09 01:50:44;;;;;;;;;46.75;38.25;;;;;;;;5060367;28;45338;-76
2022/12/09 01:53:10;;;;;;;;;49.25;36.00;;;;;;;;5050087;28;45194;-76
2022/12/09 01:55:35;;;;;;;;;47.75;33.25;;;;;;;;5051616;28;45159;-76
2022/12/09 01:58:01;;;;;;;;;42.75;33.50;;;;;;;;5051723;28;45273;-75
2022/12/09 02:00:27;;;;;;;;;51.50;38.25;;;;;;;;5037227;28;45305;-75
2022/12/09 02:02:53;;;;;;;;;42.50;30.00;;;;;;;;5030462;28;47262;-75
2022/12/09 02:05:20;;;;;;;;;46.75;36.75;;;;;;;;5055392;28;45487;-76
2022/12/09 02:07:45;;;;;;;;;55.25;38.75;;;;;;;;5048963;28;46322;-76
2022/12/09 02:10:14;;;;;;;;;49.50;39.75;;;;;;;;5053055;28;45388;-76
2022/12/09 02:12:58;;;;;;;;;51.50;37.25;;;;;;;;5050413;28;45481;-76
2022/12/09 02:15:28;;;;;;;;;41.25;35.75;;;;;;;;5056421;28;46483;-76
2022/12/09 02:17:55;;;;;;;;;42.00;36.25;;;;;;;;5036321;28;45346;-76
2022/12/09 02:20:27;;;;;;;;;52.00;37.50;;;;;;;;5028177;28;45263;-76
2022/12/09 02:23:16;;;;;;;;;50.00;35.75;;;;;;;;5043598;28;44725;-76
2022/12/09 02:26:14;;;;;;;;;50.00;39.75;;;;;;;;5046115;28;45649;-76
2022/12/09 02:28:51;;;;;;;;;48.00;34.25;;;;;;;;5004037;28;44819;-76
2022/12/09 02:31:16;;;;;;;;;42.50;36.00;;;;;;;;5050213;28;45321;-76
2022/12/09 02:34:00;;;;;;;;;44.00;37.25;;;;;;;;5031072;28;44849;-76
2022/12/09 02:36:28;;;;;;;;;36.75;33.25;;;;;;;;5049269;28;45479;-76
2022/12/09 02:38:56;;;;;;;;;49.25;39.50;;;;;;;;5039889;28;45340;-76
2022/12/09 02:41:24;;;;;;;;;34.00;26.25;;;;;;;;5050405;28;45511;-76
2022/12/09 02:43:52;;;;;;;;;42.00;36.75;;;;;;;;5040852;28;44651;-76
2022/12/09 02:46:18;;;;;;;;;46.50;39.25;;;;;;;;5055995;28;46358;-76
2022/12/09 02:48:47;;;;;;;;;46.50;36.00;;;;;;;;5023721;28;45397;-76
2022/12/09 02:51:15;;;;;;;;;48.25;38.50;;;;;;;;5041110;28;45353;-75
2022/12/09 02:53:43;;;;;;;;;44.75;32.25;;;;;;;;5047387;28;45487;-76
2022/12/09 02:56:08;;;;;;;;;41.50;34.25;;;;;;;;5039606;28;45414;-76
2022/12/09 02:58:34;;;;;;;;;40.00;32.75;;;;;;;;5048264;28;45346;-76
2022/12/09 03:00:59;;;;;;;;;49.00;35.50;;;;;;;;5028682;28;45447;-76
2022/12/09 03:03:26;;;;;;;;;44.75;31.75;;;;;;;;5046351;28;44888;-76
2022/12/09 03:05:51;;;;;;;;;45.25;29.00;;;;;;;;5047483;28;45559;-76
2022/12/09 03:08:17;;;;;;;;;37.00;32.50;;;;;;;;5045067;28;45424;-75
2022/12/09 03:11:01;;;;;;;;;31.25;26.25;;;;;;;;5054468;28;45305;-76
2022/12/09 03:13:34;;;;;;;;;40.25;31.25;;;;;;;;5052973;28;45328;-76
2022/12/09 03:16:19;;;;;;;;;27.25;20.00;;;;;;;;5054017;28;45262;-76
2022/12/09 03:18:47;;;;;;;;;43.25;30.75;;;;;;;;5036911;28;45403;-76
2022/12/09 03:21:13;;;;;;;;;35.25;24.50;;;;;;;;5045001;28;45399;-75
2022/12/09 03:23:41;;;;;;;;;38.50;32.75;;;;;;;;5053056;28;45334;-76
2022/12/09 03:26:06;;;;;;;;;34.00;31.00;;;;;;;;5034496;28;47016;-75
2022/12/09 03:28:35;;;;;;;;;31.75;27.00;;;;;;;;5040376;28;45893;-75
2022/12/09 03:31:03;;;;;;;;;38.50;32.75;;;;;;;;5037447;28;45693;-75
2022/12/09 03:33:29;;;;;;;;;35.75;30.00;;;;;;;;5049132;28;45215;-76
2022/12/09 03:35:56;;;;;;;;;34.50;26.50;;;;;;;;5045814;28;46385;-76
2022/12/09 03:38:24;;;;;;;;;34.25;26.25;;;;;;;;5040740;28;45230;-76
2022/12/09 03:40:53;;;;;;;;;34.25;26.00;;;;;;;;5046502;28;45337;-75
2022/12/09 03:43:21;;;;;;;;;28.50;24.50;;;;;;;;5045508;28;45246;-76
2022/12/09 03:45:47;;;;;;;;;30.00;22.75;;;;;;;;5047809;28;45308;-76
2022/12/09 03:48:12;;;;;;;;;31.50;24.50;;;;;;;;5041092;28;45267;-76
2022/12/09 03:50:40;;;;;;;;;30.50;26.25;;;;;;;;5027973;28;45628;-75
2022/12/09 03:53:08;;;;;;;;;27.00;26.50;;;;;;;;5043217;28;45307;-76
2022/12/09 03:55:38;;;;;;;;;31.00;25.50;;;;;;;;5030294;28;47022;-76
2022/12/09 03:58:05;;;;;;;;;21.50;18.50;;;;;;;;5051223;28;45379;-76
2022/12/09 04:00:33;;;;;;;;;24.75;24.75;;;;;;;;5051212;28;45363;-76
2022/12/09 04:02:58;;;;;;;;;25.25;22.25;;;;;;;;5049164;28;44662;-76
2022/12/09 04:05:24;;;;;;;;;27.25;23.25;;;;;;;;5053964;28;45418;-76
2022/12/09 04:07:49;;;;;;;;;30.50;20.75;;;;;;;;5041981;28;45220;-75
2022/12/09 04:10:14;;;;;;;;;27.00;23.75;;;;;;;;5051066;28;45197;-76
2022/12/09 04:12:39;;;;;;;;;32.25;27.00;;;;;;;;5049087;28;45273;-76
2022/12/09 04:15:05;;;;;;;;;37.00;23.25;;;;;;;;5038253;28;47905;-76
2022/12/09 04:17:30;;;;;;;;;29.00;24.50;;;;;;;;5047391;28;45175;-76
2022/12/09 04:19:55;;;;;;;;;19.50;19.50;;;;;;;;5049088;28;45205;-75
2022/12/09 04:22:21;;;;;;;;;27.00;20.25;;;;;;;;5045995;28;45205;-76
2022/12/09 04:24:46;;;;;;;;;30.25;24.00;;;;;;;;5038587;28;45435;-76
2022/12/09 04:27:11;;;;;;;;;23.75;22.75;;;;;;;;5050231;28;45423;-76
2022/12/09 04:29:36;;;;;;;;;23.00;17.25;;;;;;;;5055667;28;45399;-76
2022/12/09 04:32:01;;;;;;;;;30.00;28.25;;;;;;;;5052172;28;45546;-76
2022/12/09 04:34:27;;;;;;;;;30.00;19.50;;;;;;;;5057570;28;46500;-75
2022/12/09 04:36:52;;;;;;;;;23.00;17.50;;;;;;;;5050506;28;45185;-75
2022/12/09 04:39:18;;;;;;;;;26.00;18.50;;;;;;;;5026541;28;45467;-75
2022/12/09 04:41:43;;;;;;;;;23.25;22.50;;;;;;;;5043492;28;45921;-76
2022/12/09 04:44:08;;;;;;;;;28.25;20.75;;;;;;;;5037648;28;47008;-76
2022/12/09 04:46:34;;;;;;;;;25.75;21.00;;;;;;;;5043843;28;45582;-75
2022/12/09 04:48:59;;;;;;;;;24.75;20.25;;;;;;;;5028969;28;45478;-76
2022/12/09 04:51:24;;;;;;;;;30.50;20.50;;;;;;;;5050226;28;45686;-76
2022/12/09 04:53:49;;;;;;;;;32.00;25.75;;;;;;;;5050821;28;46035;-75
2022/12/09 04:56:18;;;;;;;;;25.50;22.75;;;;;;;;5053317;28;45261;-75
2022/12/09 04:58:44;;;;;;;;;32.75;26.25;;;;;;;;5052685;28;45487;-75
2022/12/09 05:01:10;;;;;;;;;33.50;20.75;;;;;;;;5053037;28;45608;-76
2022/12/09 05:03:36;;;;;;;;;25.00;22.75;;;;;;;;5054917;28;45268;-76
2022/12/09 05:06:02;;;;;;;;;19.25;17.00;;;;;;;;5056268;28;45108;-76
2022/12/09 05:08:27;;;;;;;;;24.00;18.00;;;;;;;;5042799;28;45232;-75
2022/12/09 05:10:53;;;;;;;;;32.25;26.00;;;;;;;;5054947;28;45251;-76
2022/12/09 05:13:18;;;;;;;;;29.00;25.00;;;;;;;;5044447;28;46106;-76
2022/12/09 05:15:43;;;;;;;;;22.50;18.25;;;;;;;;5045267;28;45202;-76
2022/12/09 05:18:08;;;;;;;;;29.00;25.00;;;;;;;;5049983;28;45376;-76
2022/12/09 05:20:36;;;;;;;;;28.25;21.25;;;;;;;;5048733;28;45492;-75
2022/12/09 05:23:02;;;;;;;;;29.25;17.00;;;;;;;;5046699;28;44931;-75
2022/12/09 05:25:27;;;;;;;;;30.25;20.50;;;;;;;;5035200;28;45380;-75
2022/12/09 05:27:52;;;;;;;;;19.75;16.00;;;;;;;;5049413;28;44760;-76
2022/12/09 05:30:17;;;;;;;;;20.75;20.75;;;;;;;;5059079;28;45258;-76
2022/12/09 05:32:42;;;;;;;;;27.50;21.50;;;;;;;;5047624;28;45364;-76
2022/12/09 05:35:08;;;;;;;;;22.00;22.00;;;;;;;;5058063;28;45725;-76
2022/12/09 05:37:33;;;;;;;;;24.50;20.00;;;;;;;;5045050;28;45429;-75
2022/12/09 05:39:58;;;;;;;;;31.25;23.75;;;;;;;;5049194;28;45324;-76
2022/12/09 05:42:23;;;;;;;;;25.50;17.75;;;;;;;;5031904;28;46306;-76
2022/12/09 05:44:48;;;;;;;;;25.00;22.25;;;;;;;;5041656;28;45412;-76
2022/12/09 05:47:14;;;;;;;;;30.25;24.50;;;;;;;;5041926;28;45213;-75
2022/12/09 05:49:39;;;;;;;;;24.75;22.50;;;;;;;;5036917;28;45720;-76
2022/12/09 05:52:04;;;;;;;;;25.75;19.25;;;;;;;;5035367;28;48054;-76
2022/12/09 05:54:30;;;;;;;;;20.25;18.50;;;;;;;;5030195;28;45237;-76
2022/12/09 05:56:56;;;;;;;;;25.00;21.00;;;;;;;;5046419;28;45213;-76
2022/12/09 05:59:22;;;;;;;;;34.00;24.25;;;;;;;;5056241;28;45469;-76
2022/12/09 06:01:47;;;;;;;;;25.50;20.75;;;;;;;;5050054;28;45222;-76
2022/12/09 06:04:13;;;;;;;;;27.75;22.50;;;;;;;;5046290;28;45154;-76
2022/12/09 06:06:38;;;;;;;;;23.75;19.75;;;;;;;;5053720;28;45233;-76
2022/12/09 06:09:07;;;;;;;;;24.25;22.75;;;;;;;;5055997;28;45202;-76
2022/12/09 06:11:32;;;;;;;;;34.75;25.00;;;;;;;;5046324;28;45427;-75
2022/12/09 06:13:57;;;;;;;;;29.00;21.00;;;;;;;;5031318;28;45716;-76
2022/12/09 06:16:23;;;;;;;;;21.25;21.25;;;;;;;;5052297;28;45607;-75
2022/12/09 06:18:48;;;;;;;;;35.25;27.75;;;;;;;;5055953;28;45262;-75
2022/12/09 06:21:14;;;;;;;;;30.25;21.00;;;;;;;;5049424;28;46096;-75
2022/12/09 06:23:40;;;;;;;;;29.00;25.25;;;;;;;;5024468;28;45552;-76
2022/12/09 06:26:06;;;;;;;;;28.00;21.25;;;;;;;;5045042;28;45219;-76
2022/12/09 06:28:32;;;;;;;;;28.50;21.50;;;;;;;;5046405;28;45404;-75
2022/12/09 06:30:57;;;;;;;;;22.50;16.75;;;;;;;;5049860;28;45289;-76
2022/12/09 06:33:22;;;;;;;;;32.75;24.50;;;;;;;;5050037;28;45207;-76
2022/12/09 06:35:47;;;;;;;;;22.75;19.00;;;;;;;;5034929;28;45251;-77
2022/12/09 06:38:13;;;;;;;;;26.50;26.25;;;;;;;;5042431;28;45461;-77
2022/12/09 06:40:42;;;;;;;;;27.50;23.75;;;;;;;;5042329;28;45154;-77
2022/12/09 06:43:07;;;;;;;;;28.25;26.25;;;;;;;;5047331;28;45246;-76
2022/12/09 06:45:32;;;;;;;;;19.50;19.25;;;;;;;;5055242;28;45329;-77
2022/12/09 06:47:57;;;;;;;;;20.25;17.75;;;;;;;;5044680;28;45309;-77
2022/12/09 06:50:22;;;;;;;;;25.75;21.75;;;;;;;;5053236;28;45316;-77
2022/12/09 06:52:48;;;;;;;;;30.00;25.00;;;;;;;;5048492;28;45320;-77
2022/12/09 06:55:13;;;;;;;;;33.75;25.50;;;;;;;;5052318;28;45221;-77
2022/12/09 06:57:38;;;;;;;;;38.75;24.00;;;;;;;;5052618;28;45303;-77
2022/12/09 07:00:04;;;;;;;;;30.25;25.25;;;;;;;;5041712;28;45399;-77
2022/12/09 07:02:29;;;;;;;;;30.50;24.50;;;;;;;;5047175;28;45360;-78
2022/12/09 07:04:55;;;;;;;;;28.00;23.50;;;;;;;;5043575;28;45162;-77
2022/12/09 07:07:20;;;;;;;;;46.00;30.50;;;;;;;;5046810;28;45210;-77
2022/12/09 07:09:46;;;;;;;;;43.25;29.50;;;;;;;;5034632;28;45463;-77
2022/12/09 07:12:11;;;;;;;;;41.25;29.25;;;;;;;;5048589;28;45130;-77
2022/12/09 07:14:36;;;;;;;;;34.50;26.25;;;;;;;;5050949;28;45174;-77
2022/12/09 07:17:01;;;;;;;;;47.50;29.75;;;;;;;;5054646;28;45875;-78
2022/12/09 07:19:28;;;;;;;;;38.25;23.50;;;;;;;;5054231;28;45312;-78
2022/12/09 07:21:53;;;;;;;;;35.25;24.25;;;;;;;;5036017;28;45650;-77
2022/12/09 07:24:19;;;;;;;;;26.00;22.25;;;;;;;;5044315;28;45360;-77
2022/12/09 07:26:44;;;;;;;;;32.50;28.00;;;;;;;;5042437;28;45416;-77
2022/12/09 07:29:10;;;;;;;;;35.75;27.50;;;;;;;;5041136;28;45278;-77
2022/12/09 07:31:35;;;;;;;;;42.25;31.00;;;;;;;;5039423;28;45275;-76
2022/12/09 07:34:00;;;;;;;;;32.75;28.00;;;;;;;;5039804;28;45279;-76
2022/12/09 07:36:27;;;;;;;;;42.00;28.00;;;;;;;;5040612;28;45452;-76
2022/12/09 07:38:59;;;;;;;;;35.25;27.25;;;;;;;;5039010;28;45439;-77
2022/12/09 07:41:25;;;;;;;;;35.00;28.75;;;;;;;;5046067;28;45368;-78
2022/12/09 07:43:50;;;;;;;;;38.50;29.00;;;;;;;;5040834;28;45242;-77
2022/12/09 07:46:16;;;;;;;;;26.50;20.75;;;;;;;;5049933;28;45284;-77
2022/12/09 07:48:42;;;;;;;;;30.00;23.50;;;;;;;;5027297;28;46769;-77
2022/12/09 07:51:07;;;;;;;;;37.00;31.75;;;;;;;;5043452;28;45234;-77
2022/12/09 07:53:36;;;;;;;;;20.75;19.25;;;;;;;;5043337;28;45413;-77
2022/12/09 07:56:02;;;;;;;;;28.75;27.00;;;;;;;;5053918;28;45418;-77
2022/12/09 07:58:27;;;;;;;;;29.25;25.50;;;;;;;;5059464;28;46384;-75
2022/12/09 08:00:52;;;;;;;;;27.75;23.50;;;;;;;;5049635;28;45353;-76
2022/12/09 08:03:18;;;;;;;;;27.00;23.00;;;;;;;;5062217;28;45540;-76
2022/12/09 08:05:46;;;;;;;;;19.75;19.00;;;;;;;;5062574;28;45499;-77
2022/12/09 08:08:12;;;;;;;;;28.25;27.25;;;;;;;;5050139;28;46277;-76
2022/12/09 08:10:37;;;;;;;;;29.00;23.25;;;;;;;;5056670;28;45499;-76
2022/12/09 08:13:02;;;;;;;;;27.50;24.50;;;;;;;;5034764;28;45300;-74
2022/12/09 08:15:27;;;;;;;;;27.50;26.50;;;;;;;;5027709;28;45366;-76
2022/12/09 08:17:52;;;;;;;;;33.75;25.50;;;;;;;;5049860;28;46418;-76
2022/12/09 08:20:18;;;;;;;;;31.50;28.75;;;;;;;;5061570;28;44757;-77
2022/12/09 08:22:43;;;;;;;;;43.00;37.25;;;;;;;;5049450;28;45353;-76
2022/12/09 08:25:09;;;;;;;;;39.75;34.00;;;;;;;;5063898;28;45313;-76
2022/12/09 08:27:34;;;;;;;;;37.50;32.00;;;;;;;;5044180;28;45560;-76
2022/12/09 08:29:59;;;;;;;;;31.75;22.00;;;;;;;;5056779;28;45348;-77
2022/12/09 08:32:25;;;;;;;;;33.75;27.50;;;;;;;;5049946;28;45282;-75
2022/12/09 08:34:50;;;;;;;;;25.75;23.00;;;;;;;;5059025;28;45369;-76
2022/12/09 08:37:15;;;;;;;;;24.00;19.25;;;;;;;;5050354;28;45392;-75
2022/12/09 08:39:40;;;;;;;;;27.50;22.00;;;;;;;;5049375;28;45301;-76
2022/12/09 08:42:05;;;;;;;;;25.25;25.00;;;;;;;;5051661;28;45237;-75
2022/12/09 08:44:31;;;;;;;;;31.00;24.25;;;;;;;;5041069;28;45855;-76
2022/12/09 08:46:56;;;;;;;;;38.75;30.00;;;;;;;;5045731;28;45282;-76
2022/12/09 08:49:21;;;;;;;;;31.25;29.25;;;;;;;;5052503;28;44772;-75
2022/12/09 08:51:47;;;;;;;;;41.50;28.50;;;;;;;;5049612;28;45557;-74
2022/12/09 08:54:12;;;;;;;;;52.33;44.00;;;;;;;;5052976;28;45453;-76
2022/12/09 08:56:38;;;;;;;;;48.33;41.00;;;;;;;;5054580;28;46044;-75
2022/12/09 08:59:03;;;;;;;;;60.67;46.00;;;;;;;;5053249;28;45304;-76
2022/12/09 09:01:33;;;;;;;;;47.75;42.00;;;;;;;;5058322;28;45426;-75
2022/12/09 09:04:09;;;;;;;;;47.75;39.25;;;;;;;;5061420;28;45408;-76
2022/12/09 09:06:38;;;;;;;;;42.25;37.00;;;;;;;;5040952;28;46935;-76
2022/12/09 09:09:04;;;;;;;;;41.50;35.75;;;;;;;;5046789;28;45269;-76
2022/12/09 09:11:30;;;;;;;;;40.25;32.75;;;;;;;;5051241;28;45488;-77
2022/12/09 09:13:55;;;;;;;;;41.75;32.25;;;;;;;;5055042;28;45422;-77
2022/12/09 09:16:21;;;;;;;;;39.50;29.75;;;;;;;;5048464;28;46650;-76
2022/12/09 09:18:47;;;;;;;;;46.25;35.75;;;;;;;;5050487;28;44770;-77
2022/12/09 09:21:13;;;;;;;;;41.75;32.50;;;;;;;;5037376;28;45352;-77
2022/12/09 09:23:39;;;;;;;;;50.00;38.75;;;;;;;;5040477;28;46737;-77
2022/12/09 09:26:07;;;;;;;;;39.50;30.00;;;;;;;;5055736;28;45502;-77
2022/12/09 09:28:33;;;;;;;;;40.75;33.00;;;;;;;;5040763;28;45298;-77
2022/12/09 09:30:59;;;;;;;;;38.75;38.00;;;;;;;;5043640;28;45297;-77
2022/12/09 09:33:24;;;;;;;;;47.50;35.50;;;;;;;;5055823;28;45484;-77
2022/12/09 09:35:53;;;;;;;;;42.25;34.75;;;;;;;;5036815;28;47084;-74
2022/12/09 09:38:19;;;;;;;;;39.50;35.75;;;;;;;;5044006;28;45380;-77
2022/12/09 09:40:44;;;;;;;;;41.50;39.75;;;;;;;;5051916;28;45613;-77
2022/12/09 09:43:13;;;;;;;;;57.33;46.00;;;;;;;;5042645;28;45383;-77
2022/12/09 09:45:39;;;;;;;;;41.00;33.25;;;;;;;;5030525;28;46853;-77
2022/12/09 09:48:04;;;;;;;;;35.50;32.00;;;;;;;;5029583;28;44923;-76
2022/12/09 09:50:32;;;;;;;;;39.00;29.50;;;;;;;;5053682;28;44801;-77
2022/12/09 09:53:01;;;;;;;;;36.75;32.00;;;;;;;;5048008;28;45377;-77
2022/12/09 09:55:32;;;;;;;;;43.25;35.25;;;;;;;;5057221;28;45477;-76
2022/12/09 09:57:57;;;;;;;;;32.00;28.50;;;;;;;;5053329;28;45320;-76
2022/12/09 10:00:25;;;;;;;;;40.00;34.75;;;;;;;;5058802;28;45455;-76
2022/12/09 10:02:53;;;;;;;;;34.25;28.75;;;;;;;;5051098;28;45933;-76
2022/12/09 10:05:39;;;;;;;;;33.50;31.75;;;;;;;;5040750;28;46984;-75
2022/12/09 10:08:13;;;;;;;;;45.75;31.75;;;;;;;;5051825;28;45424;-75
2022/12/09 10:10:56;;;;;;;;;40.25;34.25;;;;;;;;5053734;28;45409;-76
2022/12/09 10:13:28;;;;;;;;;56.50;42.75;;;;;;;;5053944;28;45577;-76
2022/12/09 10:15:56;;;;;;;;;32.50;28.50;;;;;;;;5054894;28;45567;-76
2022/12/09 10:18:22;;;;;;;;;41.50;37.00;;;;;;;;5047682;28;45535;-76
2022/12/09 10:20:47;;;;;;;;;47.25;40.00;;;;;;;;5056004;28;44935;-76
2022/12/09 10:23:13;;;;;;;;;40.75;37.25;;;;;;;;5025983;28;45603;-77
2022/12/09 10:26:05;;;;;;;;;44.25;36.50;;;;;;;;5035013;28;48023;-76
2022/12/09 10:28:36;;;;;;;;;56.00;43.67;;;;;;;;5048647;28;45257;-76
2022/12/09 10:31:02;;;;;;;;;49.50;39.75;;;;;;;;5055522;28;45376;-76
2022/12/09 10:33:29;;;;;;;;;58.00;42.75;;;;;;;;5034231;28;45515;-73
2022/12/09 10:35:54;;;;;;;;;51.75;40.75;;;;;;;;5056184;28;45549;-75
2022/12/09 10:38:20;;;;;;;;;43.50;36.25;;;;;;;;5040134;28;45374;-75
2022/12/09 10:40:46;;;;;;;;;49.00;42.00;;;;;;;;5032701;28;45246;-75
2022/12/09 10:46:22;;;;;;;;;60.75;41.50;;;;;;;;5054009;28;45325;-75
2022/12/09 10:48:47;;;;;;;;;45.50;40.50;;;;;;;;5051965;28;45270;-75
2022/12/09 10:51:19;;;;;;;;;45.75;35.50;;;;;;;;5039596;28;45522;-77
2022/12/09 10:53:58;;;;;;;;;54.00;42.25;;;;;;;;5045635;28;45489;-75
2022/12/09 10:56:27;;;;;;;;;50.50;41.75;;;;;;;;5054588;28;45395;-74
2022/12/09 10:59:11;;;;;;;;;46.75;40.00;;;;;;;;5040810;28;45226;-74
2022/12/09 11:01:50;;;;;;;;;49.50;39.25;;;;;;;;5050630;28;45451;-74
2022/12/09 11:04:21;;;;;;;;;47.25;40.25;;;;;;;;5054745;28;45315;-75
2022/12/09 11:06:46;;;;;;;;;43.75;37.50;;;;;;;;5047442;28;45393;-75
2022/12/09 11:09:19;;;;;;;;;44.50;31.25;;;;;;;;5027754;28;45349;-75
2022/12/09 11:11:49;;;;;;;;;48.00;38.50;;;;;;;;5029592;28;45392;-75
2022/12/09 11:14:21;;;;;;;;;42.00;39.00;;;;;;;;5049158;28;45171;-75
2022/12/09 11:16:46;;;;;;;;;38.00;29.25;;;;;;;;5048032;28;46254;-75
2022/12/09 11:19:12;;;;;;;;;44.25;34.75;;;;;;;;5047855;28;45268;-75
2022/12/09 11:21:38;;;;;;;;;52.00;40.00;;;;;;;;5051187;28;45333;-75
2022/12/09 11:24:03;;;;;;;;;56.00;37.50;;;;;;;;5031484;28;45860;-75
2022/12/09 11:26:34;;;;;;;;;47.00;39.25;;;;;;;;5035402;28;47802;-75
2022/12/09 11:29:04;;;;;;;;;50.00;36.50;;;;;;;;5040744;28;45435;-76
2022/12/09 11:31:32;;;;;;;;;58.25;42.00;;;;;;;;5052221;28;45510;-74
2022/12/09 11:33:58;;;;;;;;;56.25;42.50;;;;;;;;5051394;28;44873;-75
2022/12/09 11:36:27;;;;;;;;;60.00;46.67;;;;;;;;5050954;28;46319;-75
2022/12/09 11:38:54;;;;;;;;;47.25;40.00;;;;;;;;5040365;28;45267;-75
2022/12/09 11:44:23;;;;;;;;;53.75;41.25;;;;;;;;5042444;28;44853;-75
2022/12/09 11:47:03;;;;;;;;;62.25;49.25;;;;;;;;5046768;28;45498;-75
2022/12/09 11:49:30;;;;;;;;;57.33;46.00;;;;;;;;5047383;28;45262;-75
2022/12/09 11:52:01;;;;;;;;;56.33;43.00;;;;;;;;5051174;28;45211;-75
2022/12/09 11:54:39;;;;;;;;;59.75;44.75;;;;;;;;5049284;28;45483;-77
2022/12/09 11:57:11;;;;;;;;;60.25;45.75;;;;;;;;5054584;28;45384;-73
2022/12/09 11:59:44;;;;;;;;;63.33;50.33;;;;;;;;5029722;28;45278;-73
2022/12/09 12:02:13;;;;;;;;;63.33;48.33;;;;;;;;5048657;28;45226;-73
2022/12/09 12:04:43;;;;;;;;;61.67;48.67;;;;;;;;5056421;28;45330;-73
2022/12/09 12:07:08;;;;;;;;;52.00;44.00;;;;;;;;5049246;28;45443;-74
2022/12/09 12:09:37;;;;;;;;;62.50;49.50;;;;;;;;5035030;28;45226;-74
2022/12/09 12:12:08;;;;;;;;;47.50;36.25;;;;;;;;5047711;28;45258;-74
2022/12/09 12:14:35;;;;;;;;;44.75;40.75;;;;;;;;5033732;28;46021;-74
2022/12/09 12:17:03;;;;;;;;;50.75;43.25;;;;;;;;5044782;28;46361;-74
2022/12/09 12:19:36;;;;;;;;;52.25;42.75;;;;;;;;5047120;28;45308;-74
2022/12/09 12:22:14;;;;;;;;;49.50;41.00;;;;;;;;5054488;28;45408;-73
2022/12/09 12:24:42;;;;;;;;;49.00;42.25;;;;;;;;5051769;28;45242;-73
2022/12/09 12:27:07;;;;;;;;;52.50;39.50;;;;;;;;5036390;28;46905;-73
2022/12/09 12:29:38;;;;;;;;;45.75;41.00;;;;;;;;5053481;28;45211;-73
2022/12/09 12:32:14;;;;;;;;;56.50;43.25;;;;;;;;5026938;28;45389;-73
2022/12/09 12:34:54;;;;;;;;;52.75;41.75;;;;;;;;5046528;28;45423;-74
2022/12/09 12:37:34;;;;;;;;;64.50;45.00;;;;;;;;5040153;28;45317;-73
2022/12/09 12:39:59;;;;;;;;;64.75;48.50;;;;;;;;5044382;28;45281;-73
2022/12/09 12:42:28;;;;;;;;;55.50;45.00;;;;;;;;5050137;28;45016;-73
2022/12/09 12:47:56;;;;;;;;;55.00;42.50;;;;;;;;5046689;28;45381;-73
2022/12/09 12:50:41;;;;;;;;;58.00;42.50;;;;;;;;5051720;28;45334;-73
2022/12/09 12:53:12;;;;;;;;;49.75;38.00;;;;;;;;5053280;28;45286;-73
2022/12/09 12:55:46;;;;;;;;;36.25;27.50;;;;;;;;5059225;28;45693;-73
2022/12/09 12:58:26;;;;;;;;;43.50;38.50;;;;;;;;5037751;28;46235;-73
2022/12/09 13:00:54;;;;;;;;;37.00;33.75;;;;;;;;5040159;28;45541;-73
2022/12/09 13:03:20;;;;;;;;;47.50;37.00;;;;;;;;5052142;28;45671;-73
2022/12/09 13:05:49;;;;;;;;;40.75;34.00;;;;;;;;5058819;28;45364;-73
2022/12/09 13:08:17;;;;;;;;;47.25;42.25;;;;;;;;5055790;28;45439;-73
2022/12/09 13:10:46;;;;;;;;;41.00;31.50;;;;;;;;5059206;28;45226;-74
2022/12/09 13:13:33;;;;;;;;;33.50;27.00;;;;;;;;5055013;28;45376;-74
2022/12/09 13:16:12;;;;;;;;;56.25;44.00;;;;;;;;5040725;28;46404;-74
2022/12/09 13:18:38;;;;;;;;;47.00;36.00;;;;;;;;5055139;28;46444;-74
2022/12/09 13:21:04;;;;;;;;;43.50;39.00;;;;;;;;5057751;28;45185;-74
2022/12/09 13:23:30;;;;;;;;;48.50;38.25;;;;;;;;5055930;28;45340;-73
2022/12/09 13:26:09;;;;;;;;;43.50;30.25;;;;;;;;5040724;28;46871;-74
2022/12/09 13:28:43;;;;;;;;;45.75;38.00;;;;;;;;5057665;28;45562;-74
2022/12/09 13:31:09;;;;;;;;;38.25;34.25;;;;;;;;5047506;28;44755;-73
2022/12/09 13:33:46;;;;;;;;;52.75;40.50;;;;;;;;5051882;28;45825;-73
2022/12/09 13:36:11;;;;;;;;;46.25;39.00;;;;;;;;5050512;28;45399;-75
2022/12/09 13:38:41;;;;;;;;;54.00;46.50;;;;;;;;5056176;28;45357;-75
2022/12/09 13:41:25;;;;;;;;;48.75;39.25;;;;;;;;5054312;28;45410;-75
2022/12/09 13:43:50;;;;;;;;;67.00;56.00;;;;;;;;5055758;28;44872;-75
2022/12/09 13:46:22;;;;;;;;;43.25;36.50;;;;;;;;5053567;28;45149;-75
2022/12/09 13:48:48;;;;;;;;;44.00;35.25;;;;;;;;5056184;28;46248;-74
2022/12/09 13:51:14;;;;;;;;;44.50;35.75;;;;;;;;5052216;28;45541;-75
2022/12/09 13:53:48;;;;;;;;;41.00;32.50;;;;;;;;5058885;28;45237;-74
2022/12/09 13:56:22;;;;;;;;;41.00;36.00;;;;;;;;5054337;28;46336;-74
2022/12/09 13:58:57;;;;;;;;;52.75;43.00;;;;;;;;5033868;28;45382;-73
2022/12/09 14:01:27;;;;;;;;;67.67;55.00;;;;;;;;5040262;28;45790;-74
2022/12/09 14:03:56;;;;;;;;;59.25;48.25;;;;;;;;5042492;28;45396;-74
2022/12/09 14:06:30;;;;;;;;;70.25;50.50;;;;;;;;5044041;28;45491;-74
2022/12/09 14:08:58;;;;;;;;;45.75;39.00;;;;;;;;5051399;28;45426;-74
2022/12/09 14:11:36;;;;;;;;;47.25;36.50;;;;;;;;5033069;28;45490;-74
2022/12/09 14:14:19;;;;;;;;;42.50;38.00;;;;;;;;5045557;28;45402;-74
2022/12/09 14:16:45;;;;;;;;;35.75;31.25;;;;;;;;5034912;28;45749;-74
2022/12/09 14:19:22;;;;;;;;;42.00;31.25;;;;;;;;5029083;28;46303;-74
2022/12/09 14:22:12;;;;;;;;;54.25;42.50;;;;;;;;5048526;28;44753;-74
2022/12/09 14:24:37;;;;;;;;;24.00;23.75;;;;;;;;5053871;28;45287;-74
2022/12/09 14:27:03;;;;;;;;;60.25;44.75;;;;;;;;5054514;28;45356;-75
2022/12/09 14:29:43;;;;;;;;;39.50;35.25;;;;;;;;5041084;28;45580;-75